Time;durP1;ratioP1;P1;durP2;ratioP2;P2;SDS_P1;SDS_P2;PMS_P1;PMS_P2;Temp;Humidity;BMP_temperature;BMP_pressure;BME280_temperature;BME280_humidity;BME280_pressure;Samples;Min_cycle;Max_cycle;Signal;HPM_P1;HPM_P2
2021/12/30 00:07:44;;;;;;;0.28;0.10;;;4.40;99.90;;;;;;21076014;28;20040;-51
2021/12/30 00:17:47;;;;;;;0.00;0.00;;;4.30;99.90;;;;;;21075378;28;20088;-51
2021/12/30 00:27:51;;;;;;;0.50;0.00;;;4.60;99.90;;;;;;21074159;28;20113;-51
2021/12/30 00:37:53;;;;;;;0.52;0.00;;;4.70;99.90;;;;;;21073591;28;20483;-53
2021/12/30 00:47:57;;;;;;;0.10;0.00;;;4.80;99.90;;;;;;21072653;28;20062;-52
2021/12/30 00:57:59;;;;;;;0.40;0.10;;;4.90;99.90;;;;;;21072110;28;20032;-50
2021/12/30 01:08:03;;;;;;;0.00;0.00;;;4.80;99.90;;;;;;21070967;28;20040;-51
2021/12/30 01:28:43;;;;;;;0.00;0.00;;;4.10;99.90;;;;;;20877331;28;20098;-50
2021/12/30 01:38:46;;;;;;;0.08;0.00;;;3.90;99.90;;;;;;20877406;28;20091;-56
2021/12/30 01:48:48;;;;;;;0.05;0.00;;;3.90;99.90;;;;;;20875665;28;20045;-52
2021/12/30 01:58:53;;;;;;;0.22;0.10;;;3.80;99.90;;;;;;20963524;28;20055;-52
2021/12/30 02:08:56;;;;;;;0.00;0.00;;;3.70;99.90;;;;;;21066811;28;20141;-51
2021/12/30 02:18:58;;;;;;;0.05;0.00;;;4.00;99.90;;;;;;21066771;28;20052;-51
2021/12/30 02:29:01;;;;;;;0.00;0.00;;;4.00;99.90;;;;;;21065989;28;20434;-50
2021/12/30 02:39:08;;;;;;;0.00;0.00;;;3.80;99.90;;;;;;21066233;28;20036;-50
2021/12/30 02:49:11;;;;;;;0.00;0.00;;;4.90;99.90;;;;;;21065089;28;20090;-54
2021/12/30 02:59:18;;;;;;;0.15;0.10;;;5.50;99.90;;;;;;21078382;28;20395;-50
2021/12/30 03:09:21;;;;;;;0.08;0.00;;;5.00;99.90;;;;;;21080821;28;20086;-50
2021/12/30 03:19:23;;;;;;;0.00;0.00;;;4.50;99.90;;;;;;21081393;28;20533;-54
2021/12/30 03:29:26;;;;;;;0.00;0.00;;;4.40;99.90;;;;;;21078913;28;20043;-51
2021/12/30 03:39:29;;;;;;;0.00;0.00;;;4.80;99.90;;;;;;21078377;28;20069;-52
2021/12/30 03:49:31;;;;;;;0.00;0.00;;;6.40;99.90;;;;;;21077438;28;20032;-52
2021/12/30 03:59:34;;;;;;;0.00;0.00;;;6.30;99.90;;;;;;21077053;28;20394;-51
2021/12/30 04:09:37;;;;;;;0.00;0.00;;;6.10;99.90;;;;;;21074988;28;20136;-55
2021/12/30 04:19:40;;;;;;;0.00;0.00;;;6.60;99.90;;;;;;21075860;28;20028;-50
2021/12/30 04:29:42;;;;;;;0.00;0.00;;;6.70;99.90;;;;;;20990472;28;20480;-56
2021/12/30 04:39:46;;;;;;;0.00;0.00;;;6.10;99.90;;;;;;20989820;28;20094;-54
2021/12/30 04:49:49;;;;;;;0.00;0.00;;;5.70;99.90;;;;;;20988927;28;20033;-54
2021/12/30 04:59:52;;;;;;;0.10;0.00;;;6.50;99.90;;;;;;20988422;28;20098;-51
2021/12/30 05:09:54;;;;;;;0.00;0.00;;;6.20;99.90;;;;;;20986842;28;20032;-51
2021/12/30 05:19:58;;;;;;;0.00;0.00;;;6.60;99.90;;;;;;20988331;28;20589;-51
2021/12/30 05:30:01;;;;;;;0.00;0.00;;;6.60;99.90;;;;;;21069533;28;20082;-51
2021/12/30 05:40:06;;;;;;;0.00;0.00;;;6.80;99.90;;;;;;21068911;28;20081;-53
2021/12/30 05:50:10;;;;;;;0.00;0.00;;;7.20;99.90;;;;;;21069520;28;20036;-52
2021/12/30 06:00:18;;;;;;;0.00;0.00;;;7.30;99.90;;;;;;21068061;28;20032;-51
2021/12/30 06:10:20;;;;;;;0.20;0.00;;;7.30;99.90;;;;;;21066834;28;20036;-53
2021/12/30 06:20:23;;;;;;;1.90;0.00;;;7.60;99.90;;;;;;21066802;28;20073;-51
2021/12/30 06:30:26;;;;;;;0.00;0.00;;;7.80;99.90;;;;;;21066107;28;20056;-51
2021/12/30 06:40:28;;;;;;;0.00;0.00;;;7.80;99.90;;;;;;21066722;28;20544;-51
2021/12/30 06:50:33;;;;;;;0.00;0.00;;;8.10;99.90;;;;;;21048825;28;20101;-51
2021/12/30 07:00:35;;;;;;;0.00;0.00;;;7.90;99.90;;;;;;21064808;28;20407;-52
2021/12/30 07:10:38;;;;;;;0.00;0.00;;;8.10;99.90;;;;;;21064451;28;20036;-51
2021/12/30 07:20:40;;;;;;;0.20;0.00;;;8.20;99.90;;;;;;21064578;28;20040;-51
2021/12/30 07:30:43;;;;;;;0.25;0.00;;;8.40;99.90;;;;;;21065651;28;20044;-51
2021/12/30 07:40:48;;;;;;;0.10;0.00;;;8.40;99.90;;;;;;21068804;28;20447;-55
2021/12/30 07:50:51;;;;;;;0.00;0.00;;;8.40;99.90;;;;;;21078863;28;20056;-56
2021/12/30 08:00:55;;;;;;;0.00;0.00;;;8.80;99.90;;;;;;21077316;28;20035;-51
2021/12/30 08:10:57;;;;;;;1.70;0.47;;;9.30;99.90;;;;;;21076322;28;20097;-51
2021/12/30 08:21:00;;;;;;;0.10;0.00;;;9.60;99.80;;;;;;21075233;28;20364;-52
2021/12/30 08:31:03;;;;;;;0.20;0.10;;;10.00;99.20;;;;;;21075017;28;20097;-49
2021/12/30 08:41:08;;;;;;;0.40;0.10;;;10.30;99.10;;;;;;21074081;28;20082;-48
2021/12/30 08:51:11;;;;;;;0.50;0.22;;;10.20;98.70;;;;;;21073068;28;20028;-51
2021/12/30 09:01:14;;;;;;;0.00;0.00;;;10.70;97.50;;;;;;21073534;28;20028;-52
2021/12/30 09:11:17;;;;;;;0.00;0.00;;;10.80;96.50;;;;;;21071107;28;20036;-51
2021/12/30 09:21:19;;;;;;;0.00;0.00;;;10.90;95.20;;;;;;21070344;28;20475;-51
2021/12/30 09:31:22;;;;;;;0.20;0.10;;;11.00;95.50;;;;;;21070637;28;20035;-55
2021/12/30 09:41:25;;;;;;;0.00;0.00;;;11.10;94.50;;;;;;21065746;28;20036;-52
2021/12/30 09:51:27;;;;;;;1.45;0.00;;;11.40;94.00;;;;;;21049263;28;20039;-51
2021/12/30 10:01:30;;;;;;;0.00;0.00;;;11.40;93.60;;;;;;21067813;28;20101;-52
2021/12/30 10:11:47;;;;;;;0.00;0.00;;;11.40;93.70;;;;;;21068145;28;20044;-54
2021/12/30 10:21:49;;;;;;;0.00;0.00;;;12.10;92.50;;;;;;21069642;28;20043;-52
2021/12/30 10:31:53;;;;;;;0.00;0.00;;;12.90;91.20;;;;;;21066184;28;20024;-51
2021/12/30 10:42:05;;;;;;;0.00;0.00;;;13.40;90.30;;;;;;21067466;28;20031;-52
2021/12/30 10:52:15;;;;;;;0.00;0.00;;;13.70;86.70;;;;;;21065582;28;20058;-55
2021/12/30 11:02:22;;;;;;;0.00;0.00;;;13.70;84.40;;;;;;21065580;28;20113;-55
2021/12/30 11:12:33;;;;;;;0.00;0.00;;;14.00;82.20;;;;;;21065305;28;20047;-52
2021/12/30 11:22:38;;;;;;;0.15;0.10;;;14.20;81.30;;;;;;20984645;28;20040;-51
2021/12/30 11:32:47;;;;;;;0.00;0.00;;;14.10;90.30;;;;;;21008033;28;20085;-55
2021/12/30 11:43:03;;;;;;;0.10;0.00;;;13.90;86.90;;;;;;21050722;28;20032;-51
2021/12/30 11:53:11;;;;;;;0.30;0.10;;;14.20;90.20;;;;;;21077809;28;20093;-56
2021/12/30 12:03:36;;;;;;;0.00;0.00;;;14.30;90.30;;;;;;21072946;28;20032;-50
2021/12/30 12:13:41;;;;;;;0.22;0.10;;;14.90;88.60;;;;;;21059547;28;20578;-53
2021/12/30 12:23:46;;;;;;;0.20;0.10;;;15.20;90.90;;;;;;21075260;28;20060;-51
2021/12/30 12:33:58;;;;;;;0.13;0.10;;;15.20;90.20;;;;;;21075348;28;20073;-51
2021/12/30 12:44:07;;;;;;;0.30;0.10;;;14.80;89.40;;;;;;21073801;28;20032;-51
2021/12/30 12:54:09;;;;;;;0.22;0.10;;;14.90;90.50;;;;;;21072662;28;20032;-53
2021/12/30 13:04:13;;;;;;;0.30;0.03;;;14.50;87.80;;;;;;21072875;28;20032;-54
2021/12/30 13:14:30;;;;;;;0.28;0.10;;;14.10;89.80;;;;;;21073326;28;20047;-51
2021/12/30 13:24:43;;;;;;;0.35;0.20;;;13.80;91.00;;;;;;21070127;28;20093;-51
2021/12/30 13:35:13;;;;;;;0.50;0.20;;;13.50;88.70;;;;;;21052745;28;20040;-56
2021/12/30 13:45:16;;;;;;;0.47;0.22;;;13.30;90.80;;;;;;21028742;28;20059;-59
2021/12/30 13:55:22;;;;;;;1.48;0.28;;;13.20;90.50;;;;;;21023849;28;20098;-59
2021/12/30 14:05:28;;;;;;;0.75;0.30;;;12.70;92.50;;;;;;21066677;28;20032;-57
2021/12/30 14:15:33;;;;;;;1.52;0.10;;;12.30;91.20;;;;;;21055741;28;20048;-60
2021/12/30 14:25:41;;;;;;;0.40;0.20;;;11.90;92.30;;;;;;20981396;28;20072;-58
2021/12/30 14:35:47;;;;;;;1.77;0.30;;;11.40;93.10;;;;;;20987977;28;20110;-65
2021/12/30 14:45:50;;;;;;;0.30;0.20;;;11.10;94.30;;;;;;21029166;28;20048;-61
2021/12/30 14:55:53;;;;;;;0.75;0.20;;;10.80;94.30;;;;;;21028412;28;20036;-65
2021/12/30 15:05:56;;;;;;;0.15;0.10;;;10.60;93.80;;;;;;21017719;28;20090;-60
2021/12/30 15:15:59;;;;;;;0.17;0.00;;;10.10;95.10;;;;;;21029520;28;20052;-59
2021/12/30 15:26:05;;;;;;;0.30;0.20;;;9.60;95.70;;;;;;21018797;28;20093;-55
2021/12/30 15:36:07;;;;;;;0.13;0.00;;;9.20;96.10;;;;;;21017384;28;20036;-55
2021/12/30 15:46:14;;;;;;;0.00;0.00;;;8.90;95.70;;;;;;20993734;28;20037;-56
2021/12/30 15:56:21;;;;;;;0.50;0.40;;;8.60;96.50;;;;;;20999916;28;20032;-54
2021/12/30 16:06:25;;;;;;;1.60;0.80;;;8.60;96.20;;;;;;20992099;28;20503;-52
2021/12/30 16:16:29;;;;;;;0.08;0.00;;;8.40;96.40;;;;;;20975715;28;20070;-54
2021/12/30 16:26:33;;;;;;;0.00;0.00;;;8.30;96.80;;;;;;21011366;28;20108;-57
2021/12/30 16:36:36;;;;;;;0.70;0.40;;;8.00;97.30;;;;;;21057550;28;20051;-55
2021/12/30 16:46:44;;;;;;;0.43;0.30;;;8.00;97.10;;;;;;21074634;28;20028;-53
2021/12/30 16:56:46;;;;;;;0.20;0.00;;;7.70;97.70;;;;;;21072725;28;20093;-54
2021/12/30 17:06:49;;;;;;;0.10;0.00;;;7.90;96.60;;;;;;21071766;28;20040;-57
2021/12/30 17:16:51;;;;;;;0.10;0.10;;;8.10;96.40;;;;;;21053887;28;20052;-52
2021/12/30 17:26:54;;;;;;;0.17;0.00;;;8.10;95.90;;;;;;21070012;28;20483;-53
2021/12/30 17:36:59;;;;;;;2.45;0.82;;;8.20;96.40;;;;;;21070263;28;20036;-53
2021/12/30 17:47:05;;;;;;;66.18;23.55;;;7.80;96.60;;;;;;21069835;28;20048;-57
2021/12/30 17:57:08;;;;;;;0.52;0.10;;;7.60;97.70;;;;;;21068335;28;20061;-56
2021/12/30 18:07:10;;;;;;;0.60;0.10;;;7.60;97.70;;;;;;21067623;28;20100;-53
2021/12/30 18:17:14;;;;;;;0.08;0.00;;;7.60;97.80;;;;;;21066652;28;20055;-53
2021/12/30 18:27:19;;;;;;;0.00;0.00;;;7.30;98.20;;;;;;21066562;28;20036;-57
2021/12/30 18:37:22;;;;;;;0.00;0.00;;;7.20;98.70;;;;;;21066012;28;20093;-55
2021/12/30 18:47:24;;;;;;;0.00;0.00;;;7.10;98.70;;;;;;21065653;28;20066;-57
2021/12/30 18:57:27;;;;;;;0.10;0.00;;;7.10;98.90;;;;;;21048335;28;20483;-56
2021/12/30 19:07:31;;;;;;;0.22;0.00;;;7.10;98.50;;;;;;21064512;28;20036;-55
2021/12/30 19:17:33;;;;;;;0.10;0.00;;;7.30;98.60;;;;;;21064189;28;20036;-56
2021/12/30 19:27:37;;;;;;;0.30;0.00;;;7.10;98.70;;;;;;21064567;28;20040;-55
2021/12/30 19:37:42;;;;;;;0.00;0.00;;;7.80;97.10;;;;;;21070830;28;20044;-57
2021/12/30 19:47:45;;;;;;;0.10;0.00;;;8.00;97.20;;;;;;21078182;28;20062;-57
2021/12/30 19:57:49;;;;;;;0.00;0.00;;;7.60;97.50;;;;;;21077257;28;20061;-58
2021/12/30 20:07:54;;;;;;;0.10;0.00;;;7.40;98.40;;;;;;21075981;28;20074;-53
2021/12/30 20:17:57;;;;;;;0.00;0.00;;;7.40;98.60;;;;;;21076009;28;20036;-53
2021/12/30 20:28:01;;;;;;;0.03;0.00;;;7.30;98.60;;;;;;21074685;28;20093;-56
2021/12/30 20:38:05;;;;;;;0.00;0.00;;;7.30;98.40;;;;;;21073973;28;20036;-53
2021/12/30 20:48:09;;;;;;;0.35;0.00;;;7.30;98.50;;;;;;21072707;28;20100;-56
2021/12/30 20:58:16;;;;;;;0.17;0.03;;;7.30;98.30;;;;;;21072392;28;20032;-57
2021/12/30 21:08:20;;;;;;;0.20;0.00;;;7.50;98.10;;;;;;21071049;28;20124;-56
2021/12/30 21:18:27;;;;;;;0.00;0.00;;;7.30;97.60;;;;;;20986218;28;20441;-59
2021/12/30 21:28:36;;;;;;;0.03;0.00;;;7.10;97.70;;;;;;21062701;28;20101;-53
2021/12/30 21:38:39;;;;;;;0.00;0.00;;;7.40;97.10;;;;;;21069098;28;20040;-58
2021/12/30 21:48:52;;;;;;;0.20;0.00;;;7.40;97.20;;;;;;21069113;28;20032;-57
2021/12/30 21:58:55;;;;;;;0.00;0.00;;;7.30;97.80;;;;;;21066803;28;20032;-52
2021/12/30 22:09:06;;;;;;;3.20;0.00;;;7.20;98.50;;;;;;21066734;28;20117;-57
2021/12/30 22:19:30;;;;;;;0.00;0.00;;;7.10;98.30;;;;;;21066720;28;20476;-55
2021/12/30 22:29:42;;;;;;;0.00;0.00;;;7.10;98.60;;;;;;20983612;28;20041;-53
2021/12/30 22:40:07;;;;;;;0.20;0.00;;;7.00;98.70;;;;;;20983788;28;20040;-52
2021/12/30 22:50:28;;;;;;;0.00;0.00;;;7.00;98.50;;;;;;20973156;28;20087;-58
2021/12/30 23:00:52;;;;;;;0.20;0.00;;;7.40;97.50;;;;;;20969642;28;20068;-54
2021/12/30 23:11:04;;;;;;;0.32;0.00;;;7.10;97.70;;;;;;20959889;28;20064;-52
2021/12/30 23:21:28;;;;;;;0.57;0.00;;;6.70;98.60;;;;;;20987565;28;20028;-55
2021/12/30 23:31:47;;;;;;;0.00;0.00;;;6.80;98.20;;;;;;20890121;28;20041;-55
2021/12/30 23:42:20;;;;;;;0.00;0.00;;;6.50;98.00;;;;;;20904457;28;20086;-53
2021/12/30 23:52:46;;;;;;;0.00;0.00;;;6.20;98.80;;;;;;20899901;28;20106;-55
